WetterOnline ( https://www.wetteronline.ch )

Wetter aktuell Emden

Aktuelles Wetter: Emden (5m)

6-stündlich | Neueste Meldungen
Ortszeit Temperatur Wetter
So, 25.10. 19:00 11.7° C bedeckt
So, 25.10. 13:00 12.6° C bewölkt
So, 25.10. 7:00 14.7° C bewölkt
So, 25.10. 2:00 14.6° C wolkig
Sa, 24.10. 20:00 13.2° C bedeckt
Sa, 24.10. 14:00 13.5° C bedeckt
Sa, 24.10. 8:00 11.8° C bewölkt
Sa, 24.10. 2:00 12.6° C bewölkt
Ortszeit Temperatur Wetter
So, 25.10. 23:30 9.3° C bewölkt
So, 25.10. 23:20 9.3° C bewölkt
So, 25.10. 23:10 9.5° C wolkig
So, 25.10. 23:00 10.2° C wolkenlos
So, 25.10. 22:50 10.2° C wolkenlos
So, 25.10. 22:40 10.3° C leicht bewölkt
So, 25.10. 22:30 10.5° C leicht bewölkt
So, 25.10. 22:00 10.6° C wolkenlos
So, 25.10. 21:30 10.9° C fast wolkenlos
So, 25.10. 21:00 11.1° C wolkig
So, 25.10. 20:30 11.2° C leicht bewölkt
Ortszeit Relative Feuchte Sichtweite
So, 25.10. 19:00 89% >70 km
So, 25.10. 13:00 84% >70 km
So, 25.10. 7:00 77% 65 km
So, 25.10. 2:00 80% >70 km
Sa, 24.10. 20:00 89% 40 km
Sa, 24.10. 14:00 87% 35 km
Sa, 24.10. 8:00 91% 25 km
Sa, 24.10. 2:00 88% 21 km
Ortszeit Relative Feuchte Sichtweite
So, 25.10. 23:30 95% 35 km
So, 25.10. 23:20 95% -
So, 25.10. 23:10 94% -
So, 25.10. 23:00 91% 55 km
So, 25.10. 22:50 91% -
So, 25.10. 22:40 90% -
So, 25.10. 22:30 90% 60 km
So, 25.10. 22:00 90% 50 km
So, 25.10. 21:30 90% 50 km
So, 25.10. 21:00 91% 50 km
So, 25.10. 20:30 92% 50 km
Ortszeit Niederschlagsmenge Niederschlagsart
So, 25.10. 19:00 2 l/m2 in 12 Std. Regen
So, 25.10. 13:00 2 l/m2 in 6 Std. Regen
So, 25.10. 7:00 0.1 l/m2 in 12 Std. Regen
So, 25.10. 2:00 0.0 l/m2 in 6 Std. -
Sa, 24.10. 20:00 0.2 l/m2 in 12 Std. Sprühregen
Sa, 24.10. 14:00 0.2 l/m2 in 6 Std. Regen
Sa, 24.10. 8:00 0.1 l/m2 in 12 Std. Regen
Sa, 24.10. 2:00 0.0 l/m2 in 6 Std. -
Ortszeit Niederschlagsmenge Niederschlagsart
So, 25.10. 23:30 0.0 l/m2 in 1 Std. -
So, 25.10. 23:20 keine Meldung -
So, 25.10. 23:10 keine Meldung -
So, 25.10. 23:00 0.0 l/m2 in 1 Std. -
So, 25.10. 22:50 keine Meldung -
So, 25.10. 22:40 keine Meldung -
So, 25.10. 22:30 0.0 l/m2 in 1 Std. -
So, 25.10. 22:00 0.0 l/m2 in 1 Std. -
So, 25.10. 21:30 0.0 l/m2 in 1 Std. -
So, 25.10. 21:00 0.0 l/m2 in 1 Std. -
So, 25.10. 20:30 0.0 l/m2 in 1 Std. -
Ortszeit Stärke Spitze Richtung
km/h Bft. km/h Grad Sektor
So, 25.10. 19:00 15 3 31 190° S
So, 25.10. 13:00 20 4 44 200° S
So, 25.10. 7:00 24 4 50 190° S
So, 25.10. 2:00 25 4 43 180° S
Sa, 24.10. 20:00 18 3 40 190° S
Sa, 24.10. 14:00 15 3 33 190° S
Sa, 24.10. 8:00 11 2 29 210° SW
Sa, 24.10. 2:00 17 3 33 210° SW
Ortszeit Stärke Spitze Richtung
km/h Bft. km/h Grad Sektor
So, 25.10. 23:30 11 2 22 170° S
So, 25.10. 23:20 11 2 - 170° S
So, 25.10. 23:10 11 2 - 160° S
So, 25.10. 23:00 13 3 26 180° S
So, 25.10. 22:50 13 3 - 180° S
So, 25.10. 22:40 13 3 - 190° S
So, 25.10. 22:30 13 3 22 190° S
So, 25.10. 22:00 15 3 28 200° S
So, 25.10. 21:30 17 3 28 190° S
So, 25.10. 21:00 14 3 25 190° S
So, 25.10. 20:30 13 3 22 180° S
Ortszeit Untergrenze Bedeckung Gattung
total tief tief mittel hoch
So, 25.10. 19:00 5400 m 8/8 8/8 - - -
So, 25.10. 13:00 510 m 8/8 7/8 - - -
So, 25.10. 7:00 900 m 8/8 7/8 - - -
So, 25.10. 2:00 750 m 8/8 1/8 - - -
Sa, 24.10. 20:00 360 m 8/8 8/8 - - -
Sa, 24.10. 14:00 480 m 8/8 8/8 - - -
Sa, 24.10. 8:00 360 m 7/8 7/8 - - -
Sa, 24.10. 2:00 570 m 8/8 5/8 - - -
Ortszeit Bedeckungsgrad in Achtel und Wolkenuntergrenze
So, 25.10. 23:30 7(6000m) 7(6600m)
So, 25.10. 23:20 7(6000m) 7(6600m)
So, 25.10. 23:10 6(6300m)
So, 25.10. 23:00 4(6300m) 4(6600m)
So, 25.10. 22:50 keine Wolken
So, 25.10. 22:40 2(6000m)
So, 25.10. 22:30 4(6000m)
So, 25.10. 22:00 keine Wolken
So, 25.10. 21:30 1(8100m)
So, 25.10. 21:00 7(7800m)
So, 25.10. 20:30 5(7500m)
Ortszeit Luftdruck NN (hPa) Tendenz (hPa in 3 Std.)
So, 25.10. 19:00 1000 + 0,3
So, 25.10. 13:00 1001 + 0,3
So, 25.10. 7:00 999 - 1,0
So, 25.10. 2:00 1002 - 1,8
Sa, 24.10. 20:00 1006 - 1,4
Sa, 24.10. 14:00 1009 - 1,3
Sa, 24.10. 8:00 1009 + 0,1
Sa, 24.10. 2:00 1008 + 0,3
Ortszeit Luftdruck NN (hPa) Tendenz (hPa in 3 Std.)
So, 25.10. 23:30 1000 - 0,2
So, 25.10. 23:20 1000 keine Meldung
So, 25.10. 23:10 1000 keine Meldung
So, 25.10. 23:00 1000 + 0,1
So, 25.10. 22:50 1000 keine Meldung
So, 25.10. 22:40 1000 keine Meldung
So, 25.10. 22:30 1000 0,0
So, 25.10. 22:00 1000 - 0,2
So, 25.10. 21:30 1000 - 0,3
So, 25.10. 21:00 1000 0,0
So, 25.10. 20:30 1000 - 0,1
Ortszeit Schneehöhe (cm)
So, 25.10. 19:00 0
So, 25.10. 13:00 0
So, 25.10. 7:00 0
So, 25.10. 2:00 0
Sa, 24.10. 20:00 0
Sa, 24.10. 14:00 0
Sa, 24.10. 8:00 0
Sa, 24.10. 2:00 0
Ortszeit Schneehöhe (cm)
So, 25.10. 23:30 0
So, 25.10. 23:20 0
So, 25.10. 23:10 0
So, 25.10. 23:00 0
So, 25.10. 22:50 0
So, 25.10. 22:40 0
So, 25.10. 22:30 0
So, 25.10. 22:00 0
So, 25.10. 21:30 0
So, 25.10. 21:00 0
So, 25.10. 20:30 0
Link zu dieser Seite / Seite empfehlen

Das Wetter in ...